Time;durP1;ratioP1;P1;durP2;ratioP2;P2;SDS_P1;SDS_P2;PMS_P1;PMS_P2;Temp;Humidity;BMP_temperature;BMP_pressure;BME280_temperature;BME280_humidity;BME280_pressure;Samples;Min_cycle;Max_cycle;Signal;HPM_P1;HPM_P2
2023/05/28 00:02:18;;;;;;;0.10;0.10;;;;;;;12.48;53.30;99661.91;5064189;28;20101;-75
2023/05/28 00:04:44;;;;;;;0.20;0.20;;;;;;;12.51;52.96;99653.13;5063901;28;20052;-75
2023/05/28 00:07:10;;;;;;;0.10;0.10;;;;;;;12.56;52.77;99646.72;5080577;28;20052;-76
2023/05/28 00:09:37;;;;;;;0.17;0.17;;;;;;;12.56;52.66;99633.00;5066696;28;20518;-75
2023/05/28 00:12:05;;;;;;;0.10;0.10;;;;;;;12.60;52.92;99654.09;5064170;28;20055;-70
2023/05/28 00:14:31;;;;;;;0.10;0.10;;;;;;;12.67;53.54;99661.97;5030910;28;20047;-70
2023/05/28 00:16:57;;;;;;;0.10;0.10;;;;;;;12.69;52.85;99669.91;5062907;28;20044;-70
2023/05/28 00:19:25;;;;;;;0.20;0.10;;;;;;;12.65;52.91;99669.66;5081373;28;20048;-70
2023/05/28 00:21:51;;;;;;;0.10;0.10;;;;;;;12.56;52.91;99661.28;5048373;28;20052;-69
2023/05/28 00:24:18;;;;;;;0.17;0.17;;;;;;;12.40;53.21;99657.06;5064505;28;20048;-70
2023/05/28 00:26:44;;;;;;;0.20;0.20;;;;;;;12.16;54.04;99650.44;5080904;28;20048;-70
2023/05/28 00:29:10;;;;;;;0.10;0.10;;;;;;;12.12;54.22;99646.66;5062909;28;20109;-70
2023/05/28 00:31:36;;;;;;;0.10;0.10;;;;;;;12.13;54.29;99648.28;5064164;28;20048;-75
2023/05/28 00:34:02;;;;;;;0.10;0.10;;;;;;;12.11;54.45;99661.47;5082229;28;20052;-75
2023/05/28 00:36:30;;;;;;;0.10;0.10;;;;;;;12.05;54.53;99657.13;5062634;28;20089;-70
2023/05/28 00:38:56;;;;;;;0.13;0.13;;;;;;;11.95;55.56;99651.72;5063051;28;20036;-70
2023/05/28 00:41:22;;;;;;;0.10;0.10;;;;;;;11.86;55.89;99648.75;5061572;28;20135;-70
2023/05/28 00:43:49;;;;;;;0.10;0.10;;;;;;;11.89;56.17;99650.94;5080764;28;20052;-70
2023/05/28 00:46:18;;;;;;;;;;;;;;;11.89;56.38;99651.75;5064846;28;20644;-70
2023/05/28 00:48:44;;;;;;;0.10;0.10;;;;;;;11.85;55.41;99652.59;5081573;28;19957;-75
2023/05/28 00:51:12;;;;;;;0.10;0.10;;;;;;;11.75;55.56;99648.88;5065646;28;20046;-75
2023/05/28 00:53:42;;;;;;;0.10;0.10;;;;;;;11.65;55.79;99637.19;5064273;28;20052;-75
2023/05/28 00:56:10;;;;;;;0.10;0.10;;;;;;;11.60;56.21;99652.53;5046742;28;20167;-70
2023/05/28 00:58:39;;;;;;;0.10;0.10;;;;;;;11.57;56.28;99641.34;5084928;28;20418;-70
2023/05/28 01:01:06;;;;;;;0.10;0.10;;;;;;;11.49;56.39;99650.97;5085962;28;20522;-70
2023/05/28 01:03:32;;;;;;;0.10;0.10;;;;;;;11.33;57.18;99655.72;5089191;28;20044;-75
2023/05/28 01:06:01;;;;;;;0.10;0.10;;;;;;;11.29;57.72;99660.13;5084101;28;20036;-75
2023/05/28 01:08:27;;;;;;;0.10;0.10;;;;;;;11.32;57.53;99651.34;5068405;28;20051;-75
2023/05/28 01:10:55;;;;;;;0.10;0.10;;;;;;;11.40;57.88;99648.03;5085650;28;20725;-75
2023/05/28 01:13:21;;;;;;;0.10;0.10;;;;;;;11.46;57.51;99646.06;5088177;28;20051;-75
2023/05/28 01:15:47;;;;;;;0.10;0.10;;;;;;;11.59;57.26;99650.88;5064700;28;20044;-75
2023/05/28 01:18:14;;;;;;;0.10;0.10;;;;;;;11.59;57.20;99661.84;5084938;28;20529;-70
2023/05/28 01:20:40;;;;;;;0.10;0.10;;;;;;;11.51;57.39;99659.72;5052605;28;20048;-75
2023/05/28 01:23:11;;;;;;;0.10;0.10;;;;;;;11.48;57.04;99658.38;5084680;28;20040;-70
2023/05/28 01:25:39;;;;;;;0.57;0.15;;;;;;;11.40;57.32;99667.19;5048388;28;20142;-70
2023/05/28 01:28:12;;;;;;;0.10;0.10;;;;;;;11.34;58.24;99665.56;5053759;28;20400;-70
2023/05/28 01:30:38;;;;;;;0.10;0.10;;;;;;;11.36;58.05;99668.84;5084631;28;20625;-70
2023/05/28 01:33:05;;;;;;;0.10;0.10;;;;;;;11.26;58.42;99661.50;5066015;28;20056;-70
2023/05/28 01:35:31;;;;;;;0.10;0.10;;;;;;;11.30;58.27;99662.56;5066357;28;20312;-70
2023/05/28 01:38:03;;;;;;;0.10;0.10;;;;;;;11.39;57.56;99671.00;5080887;28;20127;-70
2023/05/28 01:40:33;;;;;;;0.10;0.10;;;;;;;11.42;57.38;99672.38;5066097;28;20067;-70
2023/05/28 01:43:02;;;;;;;0.10;0.10;;;;;;;11.40;57.36;99669.09;5066603;28;20554;-70
2023/05/28 01:45:29;;;;;;;0.10;0.10;;;;;;;11.34;57.42;99671.88;5065708;28;20476;-74
2023/05/28 01:47:55;;;;;;;0.10;0.10;;;;;;;11.33;57.78;99669.41;5066154;28;20580;-74
2023/05/28 01:50:22;;;;;;;0.85;0.20;;;;;;;11.31;58.35;99666.94;5034871;28;20426;-74
2023/05/28 01:52:49;;;;;;;0.10;0.10;;;;;;;11.34;58.07;99671.88;5068104;28;20060;-74
2023/05/28 01:55:15;;;;;;;0.10;0.10;;;;;;;11.33;58.13;99672.16;5084158;28;20044;-74
2023/05/28 01:57:43;;;;;;;0.17;0.15;;;;;;;11.34;58.12;99673.78;5029325;28;20055;-74
2023/05/28 02:00:14;;;;;;;0.10;0.10;;;;;;;11.33;58.29;99674.88;5046484;28;20056;-74
2023/05/28 02:02:44;;;;;;;0.10;0.10;;;;;;;11.30;57.93;99672.72;5063447;28;20520;-74
2023/05/28 02:05:13;;;;;;;0.10;0.10;;;;;;;11.25;57.84;99668.09;5047413;28;20040;-74
2023/05/28 02:07:40;;;;;;;0.10;0.10;;;;;;;11.19;58.52;99661.81;5065913;28;20044;-74
2023/05/28 02:10:07;;;;;;;0.10;0.10;;;;;;;11.18;58.97;99668.41;5031323;28;20056;-74
2023/05/28 02:12:36;;;;;;;0.10;0.10;;;;;;;11.23;58.71;99673.03;5043728;28;20086;-74
2023/05/28 02:15:05;;;;;;;0.10;0.10;;;;;;;11.26;58.25;99672.47;5048293;28;20052;-70
2023/05/28 02:17:35;;;;;;;0.10;0.10;;;;;;;11.21;58.84;99677.97;5048806;28;20083;-74
2023/05/28 02:20:21;;;;;;;0.10;0.10;;;;;;;11.09;58.88;99666.53;5050441;28;20061;-75
2023/05/28 02:22:47;;;;;;;0.10;0.10;;;;;;;11.04;59.46;99670.09;5065530;28;20080;-75
2023/05/28 02:25:15;;;;;;;0.10;0.10;;;;;;;11.17;59.38;99679.66;5066022;28;20044;-70
2023/05/28 02:27:41;;;;;;;0.10;0.10;;;;;;;11.20;59.38;99676.34;5029721;28;20044;-70
2023/05/28 02:30:10;;;;;;;0.10;0.10;;;;;;;11.27;59.21;99668.63;5065048;28;20058;-74
2023/05/28 02:32:38;;;;;;;0.10;0.10;;;;;;;11.24;58.88;99668.34;5046741;28;20538;-74
2023/05/28 02:35:06;;;;;;;0.10;0.10;;;;;;;11.14;59.23;99670.06;5065195;28;20827;-74
2023/05/28 02:37:32;;;;;;;0.10;0.10;;;;;;;11.12;59.51;99679.66;5084604;28;20089;-74
2023/05/28 02:39:58;;;;;;;0.17;0.17;;;;;;;11.02;59.57;99681.34;5049181;28;20055;-70
2023/05/28 02:42:25;;;;;;;0.10;0.10;;;;;;;10.99;60.26;99675.63;5064798;28;20052;-69
2023/05/28 02:44:51;;;;;;;0.25;0.20;;;;;;;11.02;60.18;99678.63;5048502;28;20105;-70
2023/05/28 02:47:20;;;;;;;0.13;0.13;;;;;;;11.09;59.95;99675.56;5065628;28;20442;-70
2023/05/28 02:49:48;;;;;;;0.10;0.10;;;;;;;11.04;59.53;99678.31;5067564;28;20063;-70
2023/05/28 02:52:15;;;;;;;0.93;0.20;;;;;;;10.97;59.87;99691.50;5064794;28;20118;-70
2023/05/28 02:54:46;;;;;;;0.20;0.13;;;;;;;10.92;60.57;99692.31;5078154;28;20126;-70
2023/05/28 02:57:13;;;;;;;0.10;0.10;;;;;;;10.97;60.80;99689.56;5095141;28;20048;-70
2023/05/28 02:59:39;;;;;;;0.20;0.20;;;;;;;11.07;59.91;99680.50;5064358;28;20281;-69
2023/05/28 03:02:06;;;;;;;0.20;0.20;;;;;;;11.11;60.18;99681.59;5064332;28;20059;-75
2023/05/28 03:04:32;;;;;;;0.10;0.10;;;;;;;11.33;59.89;99694.03;5049002;28;20427;-75
2023/05/28 03:07:01;;;;;;;0.10;0.10;;;;;;;11.56;58.76;99686.25;5049964;28;20052;-75
2023/05/28 03:09:27;;;;;;;;;;;;;;;11.66;58.17;99683.44;5047388;28;20058;-71
2023/05/28 03:11:53;;;;;;;0.10;0.10;;;;;;;11.73;58.46;99694.91;5066641;28;20414;-71
2023/05/28 03:14:20;;;;;;;0.20;0.20;;;;;;;11.84;58.07;99684.69;5063540;28;20052;-71
2023/05/28 03:16:47;;;;;;;0.15;0.15;;;;;;;11.96;57.55;99678.00;5064986;28;20055;-70
2023/05/28 03:19:21;;;;;;;0.20;0.20;;;;;;;11.94;57.34;99674.72;5064175;28;20044;-70
2023/05/28 03:21:47;;;;;;;0.20;0.20;;;;;;;11.94;57.48;99680.19;5046257;28;20184;-71
2023/05/28 03:24:16;;;;;;;0.20;0.20;;;;;;;12.07;57.30;99687.78;5049301;28;20048;-71
2023/05/28 03:26:46;;;;;;;0.15;0.15;;;;;;;12.15;56.73;99686.34;5044908;28;20109;-71
2023/05/28 03:29:17;;;;;;;0.22;0.20;;;;;;;12.23;56.74;99683.00;5013101;28;20052;-71
2023/05/28 03:32:04;;;;;;;0.10;0.10;;;;;;;12.23;56.62;99687.66;5064305;28;20045;-70
2023/05/28 03:34:31;;;;;;;0.20;0.20;;;;;;;12.14;57.11;99688.28;5046054;28;20186;-71
2023/05/28 03:36:57;;;;;;;0.10;0.10;;;;;;;12.03;57.13;99682.09;5028847;28;20044;-71
2023/05/28 03:39:25;;;;;;;0.10;0.10;;;;;;;11.81;57.25;99667.97;5063096;28;20076;-70
2023/05/28 03:41:53;;;;;;;2.90;0.20;;;;;;;11.66;58.24;99666.19;5046026;28;20040;-71
2023/05/28 03:44:22;;;;;;;0.45;0.20;;;;;;;11.64;58.49;99663.72;5030559;28;20265;-71
2023/05/28 03:46:48;;;;;;;0.10;0.10;;;;;;;11.72;58.19;99682.31;5045941;28;20056;-71
2023/05/28 03:49:14;;;;;;;0.10;0.10;;;;;;;11.73;58.42;99694.91;5045643;28;20079;-72
2023/05/28 03:51:40;;;;;;;0.10;0.10;;;;;;;11.77;58.16;99701.44;5027342;28;20055;-71
2023/05/28 03:54:07;;;;;;;0.20;0.20;;;;;;;11.84;58.55;99700.28;5044349;28;20051;-71
2023/05/28 03:56:35;;;;;;;0.10;0.10;;;;;;;11.97;58.23;99701.56;5044266;28;20048;-70
2023/05/28 03:59:03;;;;;;;0.10;0.10;;;;;;;12.07;57.84;99704.22;5056475;28;20040;-70
2023/05/28 04:01:30;;;;;;;0.17;0.17;;;;;;;12.17;57.51;99706.91;5049603;28;20545;-70
2023/05/28 04:03:56;;;;;;;0.20;0.20;;;;;;;12.24;57.37;99708.47;5058207;28;20131;-71
2023/05/28 04:06:23;;;;;;;0.10;0.10;;;;;;;12.22;57.71;99702.47;5045494;28;20055;-70
2023/05/28 04:08:52;;;;;;;0.13;0.13;;;;;;;12.18;57.48;99694.03;5047605;28;20048;-70
2023/05/28 04:11:18;;;;;;;0.17;0.17;;;;;;;12.10;57.60;99686.41;5048372;28;20047;-70
2023/05/28 04:13:46;;;;;;;0.10;0.10;;;;;;;12.00;58.14;99693.56;5063154;28;20143;-70
2023/05/28 04:16:13;;;;;;;0.10;0.10;;;;;;;11.98;58.52;99704.00;5050246;28;20054;-70
2023/05/28 04:18:39;;;;;;;0.10;0.10;;;;;;;12.02;58.20;99712.50;5061894;28;20044;-70
2023/05/28 04:21:06;;;;;;;0.10;0.10;;;;;;;12.07;58.33;99709.72;5081020;28;20047;-70
2023/05/28 04:23:33;;;;;;;0.13;0.13;;;;;;;12.16;58.17;99710.75;5039758;28;20117;-74
2023/05/28 04:25:59;;;;;;;0.25;0.10;;;;;;;12.22;57.55;99700.56;5066563;28;20050;-74
2023/05/28 04:28:27;;;;;;;0.20;0.20;;;;;;;12.29;58.03;99692.78;5047280;28;20051;-74
2023/05/28 04:30:55;;;;;;;0.10;0.10;;;;;;;12.44;57.12;99691.00;5062591;28;20040;-75
2023/05/28 04:33:21;;;;;;;0.20;0.20;;;;;;;12.50;57.13;99713.72;5071009;28;20726;-74
2023/05/28 04:35:48;;;;;;;0.63;0.27;;;;;;;12.60;56.96;99697.97;5071748;28;20044;-74
2023/05/28 04:38:14;;;;;;;0.20;0.20;;;;;;;12.90;56.37;99706.97;5069928;28;20400;-74
2023/05/28 04:40:41;;;;;;;0.65;0.20;;;;;;;13.24;55.18;99704.34;5080697;28;20040;-69
2023/05/28 04:43:08;;;;;;;0.20;0.20;;;;;;;13.31;54.87;99711.09;5055893;28;20037;-70
2023/05/28 04:45:35;;;;;;;0.20;0.20;;;;;;;13.38;54.67;99705.25;5034145;28;20302;-71
2023/05/28 04:48:04;;;;;;;0.20;0.20;;;;;;;13.47;54.47;99706.28;5045333;28;20095;-71
2023/05/28 04:50:30;;;;;;;0.20;0.20;;;;;;;13.65;53.53;99700.22;5033679;28;20055;-70
2023/05/28 04:52:56;;;;;;;0.20;0.20;;;;;;;13.71;53.74;99699.06;5052836;28;20129;-70
2023/05/28 04:55:23;;;;;;;0.20;0.20;;;;;;;13.70;53.30;99687.25;5052878;28;20040;-70
2023/05/28 04:57:49;;;;;;;0.20;0.20;;;;;;;13.76;53.18;99698.97;5049490;28;20053;-70
2023/05/28 05:00:16;;;;;;;0.13;0.13;;;;;;;13.73;53.86;99694.09;5069789;28;20306;-69
2023/05/28 05:02:42;;;;;;;0.20;0.20;;;;;;;13.85;53.15;99696.34;5052170;28;20482;-70
2023/05/28 05:05:11;;;;;;;0.17;0.17;;;;;;;13.64;53.80;99693.09;5051278;28;20102;-71
2023/05/28 05:07:38;;;;;;;0.20;0.20;;;;;;;13.38;54.40;99694.28;5053087;28;20466;-75
2023/05/28 05:10:06;;;;;;;0.20;0.20;;;;;;;13.19;55.00;99697.81;5036342;28;20049;-75
2023/05/28 05:12:33;;;;;;;0.20;0.20;;;;;;;13.09;55.20;99708.94;5051487;28;20052;-75
2023/05/28 05:14:59;;;;;;;0.20;0.20;;;;;;;13.08;55.56;99704.56;5051862;28;20547;-76
2023/05/28 05:17:26;;;;;;;0.20;0.20;;;;;;;13.11;55.91;99711.38;5053397;28;20032;-75
2023/05/28 05:19:52;;;;;;;0.20;0.20;;;;;;;13.24;55.56;99707.09;5072208;28;20043;-75
2023/05/28 05:22:21;;;;;;;0.30;0.20;;;;;;;13.37;54.91;99706.38;5056609;28;20054;-75
2023/05/28 05:24:48;;;;;;;0.10;0.10;;;;;;;13.30;55.10;99706.72;5052626;28;20040;-75
2023/05/28 05:27:15;;;;;;;0.20;0.20;;;;;;;13.23;55.63;99710.94;5050117;28;20044;-76
2023/05/28 05:29:42;;;;;;;0.10;0.10;;;;;;;13.19;55.60;99713.50;5070964;28;20056;-74
2023/05/28 05:32:09;;;;;;;0.20;0.20;;;;;;;13.18;55.26;99714.56;5069636;28;20044;-76
2023/05/28 05:34:35;;;;;;;0.10;0.10;;;;;;;13.18;55.51;99714.56;5085088;28;20305;-75
2023/05/28 05:37:23;;;;;;;0.20;0.20;;;;;;;13.34;55.17;99717.94;5087089;28;20131;-76
2023/05/28 05:40:10;;;;;;;0.20;0.20;;;;;;;13.52;54.76;99721.03;5063037;28;20090;-70
2023/05/28 05:43:06;;;;;;;0.20;0.20;;;;;;;13.61;54.00;99719.25;4982995;28;20057;-70
2023/05/28 05:45:32;;;;;;;0.20;0.20;;;;;;;13.63;53.95;99718.94;5079728;28;20036;-70
2023/05/28 05:47:58;;;;;;;0.30;0.30;;;;;;;13.51;54.39;99717.47;5066816;28;20127;-72
2023/05/28 05:50:25;;;;;;;0.20;0.20;;;;;;;13.42;54.58;99725.50;5049525;28;20051;-70
2023/05/28 05:52:52;;;;;;;0.20;0.20;;;;;;;13.43;54.61;99720.84;5067883;28;20552;-70
2023/05/28 05:55:19;;;;;;;0.20;0.20;;;;;;;13.60;54.79;99723.94;5063706;28;20412;-69
2023/05/28 05:57:49;;;;;;;0.20;0.20;;;;;;;13.86;53.85;99722.72;5066316;28;20143;-69
2023/05/28 06:00:17;;;;;;;0.20;0.20;;;;;;;13.98;53.32;99722.28;5082523;28;20060;-69
2023/05/28 06:02:53;;;;;;;;;;;;;;;13.95;53.08;99731.09;5067460;28;20789;-72
2023/05/28 06:05:38;;;;;;;0.20;0.20;;;;;;;13.92;53.35;99737.19;5083254;28;19931;-70
2023/05/28 06:08:24;;;;;;;0.20;0.20;;;;;;;13.87;53.34;99733.44;5081674;28;20040;-75
2023/05/28 06:11:02;;;;;;;0.20;0.20;;;;;;;13.70;53.79;99739.44;5059736;28;20542;-76
2023/05/28 06:13:28;;;;;;;0.20;0.20;;;;;;;13.47;54.56;99744.72;5047544;28;20044;-76
2023/05/28 06:15:55;;;;;;;0.20;0.20;;;;;;;13.31;55.48;99741.31;5065377;28;20049;-70
2023/05/28 06:18:23;;;;;;;0.20;0.20;;;;;;;13.22;55.68;99750.50;5066789;28;20139;-70
2023/05/28 06:20:50;;;;;;;0.17;0.17;;;;;;;13.06;56.50;99750.69;5029969;28;20446;-70
2023/05/28 06:23:16;;;;;;;0.10;0.10;;;;;;;13.01;56.74;99754.31;5027679;28;20155;-70
2023/05/28 06:25:44;;;;;;;0.10;0.10;;;;;;;12.88;56.79;99750.34;5047512;28;20048;-70
2023/05/28 06:28:11;;;;;;;0.10;0.10;;;;;;;12.86;57.10;99755.31;5035932;28;20539;-69
2023/05/28 06:30:39;;;;;;;0.10;0.10;;;;;;;12.91;57.32;99746.22;5053913;28;20467;-70
2023/05/28 06:33:08;;;;;;;0.13;0.13;;;;;;;13.02;57.03;99749.66;5048239;28;20066;-71
2023/05/28 06:35:38;;;;;;;0.20;0.20;;;;;;;13.24;56.49;99751.03;5056371;28;20123;-76
2023/05/28 06:38:06;;;;;;;0.20;0.20;;;;;;;13.30;56.06;99755.34;5045689;28;20048;-75
2023/05/28 06:40:35;;;;;;;0.30;0.25;;;;;;;13.17;56.25;99754.13;5076812;28;20044;-70
2023/05/28 06:43:08;;;;;;;0.22;0.20;;;;;;;12.95;56.73;99750.00;5039519;28;20046;-75
2023/05/28 06:45:56;;;;;;;0.10;0.10;;;;;;;12.79;57.58;99762.25;5054097;28;20063;-71
2023/05/28 06:48:25;;;;;;;0.20;0.20;;;;;;;12.74;57.98;99766.69;5072216;28;20060;-76
2023/05/28 06:50:52;;;;;;;0.20;0.20;;;;;;;12.65;58.01;99770.34;5022271;28;20427;-76
2023/05/28 06:53:18;;;;;;;0.10;0.10;;;;;;;12.51;58.42;99753.75;5037223;28;20458;-70
2023/05/28 06:55:45;;;;;;;0.10;0.10;;;;;;;12.32;59.15;99760.75;5059328;28;20040;-75
2023/05/28 06:58:36;;;;;;;0.10;0.10;;;;;;;12.20;60.18;99763.88;5052159;28;20048;-75
2023/05/28 07:01:32;;;;;;;0.20;0.20;;;;;;;12.21;60.49;99761.97;5058989;28;20106;-76
2023/05/28 07:04:08;;;;;;;0.20;0.20;;;;;;;12.14;60.54;99762.28;5043492;28;20048;-76
2023/05/28 07:06:38;;;;;;;0.40;0.15;;;;;;;12.10;60.73;99774.09;5057727;28;20040;-70
2023/05/28 07:09:06;;;;;;;0.10;0.10;;;;;;;12.05;61.07;99772.22;5039869;28;20040;-75
2023/05/28 07:11:34;;;;;;;0.10;0.10;;;;;;;12.03;61.19;99763.47;5057524;28;20044;-75
2023/05/28 07:14:02;;;;;;;0.10;0.10;;;;;;;12.05;61.46;99775.78;5072798;28;20534;-75
2023/05/28 07:16:29;;;;;;;0.10;0.10;;;;;;;12.11;61.27;99768.34;5035521;28;20396;-75
2023/05/28 07:18:56;;;;;;;;;;;;;;;12.15;61.58;99776.78;5056214;28;20052;-70
2023/05/28 07:21:23;;;;;;;;;;;;;;;12.24;61.22;99772.34;5056897;28;19959;-76
2023/05/28 07:23:50;;;;;;;0.70;0.20;;;;;;;12.26;60.94;99772.06;5056874;28;19946;-69
2023/05/28 07:26:21;;;;;;;0.10;0.10;;;;;;;12.24;61.25;99771.53;5041525;28;20036;-69
2023/05/28 07:28:49;;;;;;;0.20;0.20;;;;;;;12.26;61.14;99770.13;5038928;28;20569;-69
2023/05/28 07:31:19;;;;;;;0.20;0.20;;;;;;;12.28;61.50;99781.63;5074970;28;20079;-70
2023/05/28 07:33:47;;;;;;;0.10;0.10;;;;;;;12.43;61.61;99779.88;5076006;28;20048;-70
2023/05/28 07:36:15;;;;;;;0.20;0.20;;;;;;;12.57;61.12;99774.53;5055447;28;20047;-69
2023/05/28 07:38:42;;;;;;;0.20;0.20;;;;;;;12.70;60.66;99773.03;5054676;28;20101;-70
2023/05/28 07:41:09;;;;;;;0.22;0.22;;;;;;;12.82;60.13;99778.13;5039067;28;20047;-70
2023/05/28 07:43:48;;;;;;;0.20;0.20;;;;;;;12.98;59.90;99770.56;5057379;28;20140;-70
2023/05/28 07:46:22;;;;;;;0.20;0.20;;;;;;;13.17;59.51;99776.91;5041117;28;20036;-70
2023/05/28 07:48:53;;;;;;;0.20;0.20;;;;;;;13.29;59.33;99776.50;5071855;28;20062;-75
2023/05/28 07:51:26;;;;;;;0.10;0.10;;;;;;;13.43;58.76;99776.63;5056731;28;20041;-75
2023/05/28 07:54:03;;;;;;;0.20;0.20;;;;;;;13.47;58.31;99777.69;5043998;28;20052;-70
2023/05/28 07:56:30;;;;;;;0.20;0.20;;;;;;;13.58;58.10;99781.09;5077834;28;20090;-75
2023/05/28 07:59:00;;;;;;;0.20;0.20;;;;;;;13.59;57.83;99777.22;5035406;28;20135;-70
2023/05/28 08:01:33;;;;;;;0.10;0.10;;;;;;;13.60;58.08;99786.31;5025342;28;20051;-75
2023/05/28 08:04:01;;;;;;;0.13;0.13;;;;;;;13.60;58.00;99778.06;5047618;28;20037;-70
2023/05/28 08:06:34;;;;;;;0.22;0.22;;;;;;;13.48;57.93;99762.00;5054045;28;20055;-70
2023/05/28 08:09:02;;;;;;;0.20;0.20;;;;;;;13.59;57.80;99785.47;5042069;28;20170;-70
2023/05/28 08:11:29;;;;;;;0.20;0.20;;;;;;;13.58;57.40;99797.56;5074252;28;20049;-70
2023/05/28 08:13:56;;;;;;;0.17;0.17;;;;;;;13.55;57.23;99794.59;5042378;28;20047;-70
2023/05/28 08:16:23;;;;;;;;;;;;;;;13.59;56.93;99788.22;5058586;28;20051;-75
2023/05/28 08:19:09;;;;;;;0.10;0.10;;;;;;;13.51;56.27;99779.81;5039302;28;19924;-75
2023/05/28 08:21:37;;;;;;;0.20;0.20;;;;;;;13.50;56.55;99798.22;5056628;28;20063;-70
2023/05/28 08:24:04;;;;;;;0.20;0.20;;;;;;;13.45;57.04;99798.28;5040284;28;20295;-70
2023/05/28 08:26:32;;;;;;;0.20;0.20;;;;;;;13.32;57.52;99794.31;5047249;28;20051;-70
2023/05/28 08:29:00;;;;;;;0.10;0.10;;;;;;;13.29;58.22;99801.19;5053842;28;20428;-69
2023/05/28 08:31:33;;;;;;;0.15;0.15;;;;;;;13.22;58.63;99803.50;5041134;28;20040;-75
2023/05/28 08:34:12;;;;;;;0.20;0.20;;;;;;;13.14;60.50;99812.34;5040512;28;20124;-75
2023/05/28 08:36:38;;;;;;;0.20;0.20;;;;;;;13.04;62.77;99805.88;5055674;28;20044;-75
2023/05/28 08:39:08;;;;;;;0.10;0.10;;;;;;;12.95;63.03;99806.78;5056930;28;20511;-76
2023/05/28 08:41:37;;;;;;;0.17;0.17;;;;;;;13.02;63.69;99807.28;5084164;28;20590;-75
2023/05/28 08:44:03;;;;;;;0.20;0.20;;;;;;;13.09;63.47;99809.69;5070026;28;20106;-76
2023/05/28 08:46:32;;;;;;;0.20;0.20;;;;;;;13.21;62.97;99807.34;5089129;28;20044;-76
2023/05/28 08:49:38;;;;;;;0.20;0.20;;;;;;;13.40;62.93;99814.81;5047274;28;20152;-75
2023/05/28 08:52:08;;;;;;;0.20;0.20;;;;;;;13.43;61.40;99805.97;5031430;28;20048;-75
2023/05/28 08:54:37;;;;;;;0.20;0.20;;;;;;;13.49;61.21;99801.28;5066205;28;20056;-75
2023/05/28 08:57:05;;;;;;;0.28;0.20;;;;;;;13.65;61.19;99797.22;5063691;28;20048;-76
2023/05/28 08:59:36;;;;;;;0.20;0.20;;;;;;;13.89;60.95;99805.41;5014833;28;20076;-75
2023/05/28 09:02:03;;;;;;;;;;;;;;;14.17;60.77;99800.03;5048044;28;20048;-70
2023/05/28 09:04:29;;;;;;;0.20;0.20;;;;;;;14.32;60.05;99789.91;5058992;28;19924;-70
2023/05/28 09:06:57;;;;;;;0.30;0.30;;;;;;;14.60;59.36;99795.50;5067515;28;20048;-70
2023/05/28 09:09:37;;;;;;;0.30;0.30;;;;;;;15.08;57.23;99797.13;5048587;28;20053;-76
2023/05/28 09:12:05;;;;;;;0.57;0.30;;;;;;;15.42;55.40;99806.09;5045571;28;20049;-75
2023/05/28 09:14:38;;;;;;;0.30;0.30;;;;;;;15.69;54.81;99796.97;5030364;28;20045;-76
2023/05/28 09:17:04;;;;;;;0.38;0.30;;;;;;;15.74;53.74;99804.31;5027382;28;20534;-76
2023/05/28 09:19:31;;;;;;;0.25;0.25;;;;;;;15.62;53.52;99810.38;5032461;28;20130;-76
2023/05/28 09:22:03;;;;;;;0.40;0.40;;;;;;;15.70;53.32;99797.81;4674747;28;10000516;-76
2023/05/28 09:24:54;;;;;;;0.50;0.50;;;;;;;17.02;49.77;99790.50;5048666;28;20047;-76
2023/05/28 09:27:39;;;;;;;0.50;0.50;;;;;;;18.73;46.10;99795.50;5069994;28;20151;-76
2023/05/28 09:30:07;;;;;;;0.40;0.40;;;;;;;19.13;44.18;99796.03;5069355;28;20047;-76
2023/05/28 09:32:34;;;;;;;0.30;0.30;;;;;;;18.74;44.60;99783.28;5047251;28;20086;-75
2023/05/28 09:35:01;;;;;;;0.40;0.40;;;;;;;18.14;44.31;99789.41;5028762;28;20101;-76
2023/05/28 09:37:30;;;;;;;;;;;;;;;17.66;45.89;99791.97;5053982;28;20055;-76
2023/05/28 09:40:03;;;;;;;0.40;0.40;;;;;;;17.68;45.69;99795.22;5041621;28;19924;-75
2023/05/28 09:42:39;;;;;;;0.30;0.30;;;;;;;17.70;45.93;99792.13;5062081;28;20044;-75
2023/05/28 09:45:07;;;;;;;0.30;0.30;;;;;;;17.66;45.83;99796.66;5044987;28;20074;-75
2023/05/28 09:47:41;;;;;;;0.30;0.30;;;;;;;17.56;46.03;99786.72;5041205;28;20063;-75
2023/05/28 09:50:08;;;;;;;0.30;0.30;;;;;;;17.52;45.89;99799.56;5058584;28;20078;-70
2023/05/28 09:52:38;;;;;;;0.30;0.30;;;;;;;17.54;45.83;99786.25;5058546;28;20051;-70
2023/05/28 09:55:12;;;;;;;0.40;0.40;;;;;;;17.31;45.43;99802.13;5078869;28;20139;-74
2023/05/28 09:57:43;;;;;;;0.30;0.30;;;;;;;17.05;45.55;99784.31;5064423;28;20047;-69
2023/05/28 10:00:19;;;;;;;0.40;0.40;;;;;;;17.23;45.61;99790.72;5057909;28;20351;-70
2023/05/28 10:02:55;;;;;;;0.35;0.35;;;;;;;17.75;44.84;99794.75;5040360;28;20036;-75
2023/05/28 10:05:23;;;;;;;0.30;0.30;;;;;;;17.94;44.00;99791.66;5055610;28;20044;-76
2023/05/28 10:07:53;;;;;;;0.80;0.80;;;;;;;18.64;43.28;99790.00;5074854;28;20040;-75
2023/05/28 10:10:20;;;;;;;0.80;0.80;;;;;;;21.01;38.94;99793.06;5038583;28;20063;-76
2023/05/28 10:12:47;;;;;;;0.60;0.60;;;;;;;22.10;36.77;99788.91;5070692;28;20040;-76
2023/05/28 10:15:14;;;;;;;0.80;0.80;;;;;;;22.63;34.82;99784.38;5073737;28;20538;-76
2023/05/28 10:17:41;;;;;;;0.70;0.70;;;;;;;23.73;32.68;99785.88;5056429;28;20040;-76
2023/05/28 10:20:10;;;;;;;0.70;0.70;;;;;;;23.86;32.01;99776.19;5075157;28;20897;-76
2023/05/28 10:22:39;;;;;;;1.00;1.00;;;;;;;22.71;33.06;99785.38;5072516;28;20036;-76
2023/05/28 10:25:08;;;;;;;0.98;0.98;;;;;;;23.17;32.05;99777.38;5057055;28;20435;-71
2023/05/28 10:27:36;;;;;;;1.00;1.00;;;;;;;23.90;30.50;99779.06;5050936;28;20036;-71
2023/05/28 10:30:03;;;;;;;1.00;1.00;;;;;;;24.75;29.82;99789.50;5067394;28;20459;-70
2023/05/28 10:32:40;;;;;;;1.00;1.00;;;;;;;25.86;28.35;99783.28;5059415;28;20179;-77
2023/05/28 10:35:10;;;;;;;0.47;0.47;;;;;;;24.78;29.59;99765.63;5020357;28;20533;-78
2023/05/28 10:37:37;;;;;;;1.00;1.00;;;;;;;24.06;30.83;99774.22;5061565;28;20096;-77
2023/05/28 10:40:06;;;;;;;0.75;0.75;;;;;;;24.74;30.09;99779.50;5062670;28;20049;-77
2023/05/28 10:42:40;;;;;;;1.10;1.10;;;;;;;25.40;28.72;99777.78;5061867;28;20238;-70
2023/05/28 10:45:08;;;;;;;0.60;0.60;;;;;;;24.88;29.52;99769.78;5063824;28;20590;-69
2023/05/28 10:47:35;;;;;;;1.10;1.10;;;;;;;23.65;31.11;99768.97;5055673;28;20632;-71
2023/05/28 10:50:10;;;;;;;;;;;;;;;24.54;29.67;99777.94;5085825;28;20102;-70
2023/05/28 10:52:36;;;;;;;1.17;1.17;;;;;;;25.92;27.54;99783.75;5068160;28;19924;-71
2023/05/28 10:55:04;;;;;;;0.50;0.50;;;;;;;25.77;27.27;99766.75;5072283;28;20050;-70
2023/05/28 10:57:43;;;;;;;0.40;0.40;;;;;;;24.49;29.07;99776.25;5063990;28;20209;-70
2023/05/28 11:00:13;;;;;;;1.05;1.05;;;;;;;24.24;29.93;99778.56;5068341;28;20416;-71
2023/05/28 11:02:42;;;;;;;0.70;0.70;;;;;;;24.18;30.13;99775.28;5084588;28;20130;-70
2023/05/28 11:05:10;;;;;;;0.52;0.52;;;;;;;23.50;31.29;99767.03;5065520;28;20108;-70
2023/05/28 11:07:38;;;;;;;1.27;1.20;;;;;;;23.01;31.92;99776.59;5029255;28;20396;-70
2023/05/28 11:10:06;;;;;;;1.02;1.02;;;;;;;23.70;30.91;99762.28;5065648;28;20056;-70
2023/05/28 11:12:37;;;;;;;1.23;1.20;;;;;;;24.97;29.02;99761.94;5014990;28;20339;-70
2023/05/28 11:15:07;;;;;;;0.40;0.40;;;;;;;25.84;27.89;99765.25;5049671;28;20052;-70
2023/05/28 11:17:37;;;;;;;1.30;1.20;;;;;;;25.43;28.19;99763.88;5071972;28;20139;-70
2023/05/28 11:20:05;;;;;;;0.50;0.50;;;;;;;26.52;26.92;99753.22;5034143;28;20040;-71
2023/05/28 11:22:35;;;;;;;1.13;1.13;;;;;;;25.31;28.56;99778.88;5065219;28;20046;-71
2023/05/28 11:25:05;;;;;;;1.30;1.20;;;;;;;26.24;27.25;99758.16;5087642;28;20044;-71
2023/05/28 11:27:33;;;;;;;1.10;1.10;;;;;;;27.75;25.29;99762.59;5067728;28;20036;-70
2023/05/28 11:30:01;;;;;;;1.20;1.20;;;;;;;28.91;24.05;99756.53;5051574;28;20059;-71
2023/05/28 11:32:33;;;;;;;1.20;1.20;;;;;;;29.18;23.29;99756.13;5078496;28;20071;-72
2023/05/28 11:35:01;;;;;;;1.02;1.02;;;;;;;29.28;23.26;99763.75;5080107;28;20140;-70
2023/05/28 11:37:29;;;;;;;0.40;0.40;;;;;;;26.81;25.40;99764.72;5081926;28;20049;-69
2023/05/28 11:39:57;;;;;;;0.98;0.98;;;;;;;24.28;28.81;99763.50;5030443;28;20043;-71
2023/05/28 11:42:24;;;;;;;1.30;1.20;;;;;;;25.01;28.30;99756.41;5074181;28;20579;-71
2023/05/28 11:44:51;;;;;;;1.30;1.20;;;;;;;26.78;26.05;99759.88;5085073;28;20063;-71
2023/05/28 11:47:18;;;;;;;0.63;0.63;;;;;;;27.27;24.98;99761.50;5092272;28;20079;-70